sensor_id;sensor_type;location;lat;lon;timestamp;temperature;humidity
59961;DHT22;55902;-37.980;-63.602;2023-05-03T00:00:40;11.90;71.60
59961;DHT22;55902;-37.980;-63.602;2023-05-03T00:03:07;11.80;69.90
59961;DHT22;55902;-37.980;-63.602;2023-05-03T00:05:34;11.80;73.40
59961;DHT22;55902;-37.980;-63.602;2023-05-03T00:08:01;11.60;74.00
59961;DHT22;55902;-37.980;-63.602;2023-05-03T00:10:29;11.50;77.30
59961;DHT22;55902;-37.980;-63.602;2023-05-03T00:12:59;11.40;75.50
59961;DHT22;55902;-37.980;-63.602;2023-05-03T00:15:26;11.40;74.00
59961;DHT22;55902;-37.980;-63.602;2023-05-03T00:17:54;11.30;75.00
59961;DHT22;55902;-37.980;-63.602;2023-05-03T00:20:20;11.30;74.10
59961;DHT22;55902;-37.980;-63.602;2023-05-03T00:22:48;11.20;73.00
59961;DHT22;55902;-37.980;-63.602;2023-05-03T00:35:21;11.10;73.40
59961;DHT22;55902;-37.980;-63.602;2023-05-03T00:37:48;11.10;70.80
59961;DHT22;55902;-37.980;-63.602;2023-05-03T00:40:15;11.10;73.50
59961;DHT22;55902;-37.980;-63.602;2023-05-03T00:42:44;11.00;74.60
59961;DHT22;55902;-37.980;-63.602;2023-05-03T00:45:14;11.00;72.60
59961;DHT22;55902;-37.980;-63.602;2023-05-03T00:47:41;11.00;72.00
59961;DHT22;55902;-37.980;-63.602;2023-05-03T00:50:08;11.00;76.90
59961;DHT22;55902;-37.980;-63.602;2023-05-03T00:52:38;10.90;75.60
59961;DHT22;55902;-37.980;-63.602;2023-05-03T00:55:07;10.90;79.30
59961;DHT22;55902;-37.980;-63.602;2023-05-03T00:57:35;10.80;79.30
59961;DHT22;55902;-37.980;-63.602;2023-05-03T01:00:02;10.80;79.80
59961;DHT22;55902;-37.980;-63.602;2023-05-03T01:02:29;10.70;80.50
59961;DHT22;55902;-37.980;-63.602;2023-05-03T01:04:56;10.70;80.80
59961;DHT22;55902;-37.980;-63.602;2023-05-03T01:15:34;10.60;81.10
59961;DHT22;55902;-37.980;-63.602;2023-05-03T01:18:07;10.60;79.80
59961;DHT22;55902;-37.980;-63.602;2023-05-03T01:20:39;10.50;81.90
59961;DHT22;55902;-37.980;-63.602;2023-05-03T01:23:14;10.50;79.60
59961;DHT22;55902;-37.980;-63.602;2023-05-03T01:25:43;10.40;80.30
59961;DHT22;55902;-37.980;-63.602;2023-05-03T01:28:10;10.40;80.50
59961;DHT22;55902;-37.980;-63.602;2023-05-03T01:30:38;10.30;81.80
59961;DHT22;55902;-37.980;-63.602;2023-05-03T01:33:35;10.30;81.00
59961;DHT22;55902;-37.980;-63.602;2023-05-03T01:36:22;10.30;80.80
59961;DHT22;55902;-37.980;-63.602;2023-05-03T01:38:51;10.30;78.80
59961;DHT22;55902;-37.980;-63.602;2023-05-03T01:41:19;10.20;78.20
59961;DHT22;55902;-37.980;-63.602;2023-05-03T01:43:48;10.20;77.80
59961;DHT22;55902;-37.980;-63.602;2023-05-03T01:46:15;10.20;76.60
59961;DHT22;55902;-37.980;-63.602;2023-05-03T01:48:42;10.20;76.60
59961;DHT22;55902;-37.980;-63.602;2023-05-03T01:51:09;10.20;76.80
59961;DHT22;55902;-37.980;-63.602;2023-05-03T01:53:36;10.10;77.20
59961;DHT22;55902;-37.980;-63.602;2023-05-03T01:56:03;10.10;76.90
59961;DHT22;55902;-37.980;-63.602;2023-05-03T01:58:30;10.10;77.30
59961;DHT22;55902;-37.980;-63.602;2023-05-03T02:00:57;10.10;78.00
59961;DHT22;55902;-37.980;-63.602;2023-05-03T02:03:24;10.10;78.20
59961;DHT22;55902;-37.980;-63.602;2023-05-03T02:05:51;10.00;80.70
59961;DHT22;55902;-37.980;-63.602;2023-05-03T02:08:18;10.00;82.20
59961;DHT22;55902;-37.980;-63.602;2023-05-03T02:10:45;9.90;83.60
59961;DHT22;55902;-37.980;-63.602;2023-05-03T02:13:12;9.80;83.30
59961;DHT22;55902;-37.980;-63.602;2023-05-03T02:15:39;9.80;80.10
59961;DHT22;55902;-37.980;-63.602;2023-05-03T02:18:06;9.80;83.20
59961;DHT22;55902;-37.980;-63.602;2023-05-03T02:20:34;9.80;84.40
59961;DHT22;55902;-37.980;-63.602;2023-05-03T02:23:03;9.70;82.70
59961;DHT22;55902;-37.980;-63.602;2023-05-03T02:25:31;9.60;84.90
59961;DHT22;55902;-37.980;-63.602;2023-05-03T02:27:58;9.60;84.80
59961;DHT22;55902;-37.980;-63.602;2023-05-03T02:30:25;9.50;85.80
59961;DHT22;55902;-37.980;-63.602;2023-05-03T02:32:51;9.50;81.50
59961;DHT22;55902;-37.980;-63.602;2023-05-03T02:35:18;9.40;84.90
59961;DHT22;55902;-37.980;-63.602;2023-05-03T02:37:45;9.40;83.40
59961;DHT22;55902;-37.980;-63.602;2023-05-03T02:40:13;9.40;83.00
59961;DHT22;55902;-37.980;-63.602;2023-05-03T02:42:40;9.30;85.20
59961;DHT22;55902;-37.980;-63.602;2023-05-03T02:45:08;9.30;85.30
59961;DHT22;55902;-37.980;-63.602;2023-05-03T02:47:35;9.20;84.60
59961;DHT22;55902;-37.980;-63.602;2023-05-03T02:50:02;9.20;83.60
59961;DHT22;55902;-37.980;-63.602;2023-05-03T02:52:29;9.20;84.10
59961;DHT22;55902;-37.980;-63.602;2023-05-03T02:54:56;9.20;82.70
59961;DHT22;55902;-37.980;-63.602;2023-05-03T02:57:23;9.20;79.60
59961;DHT22;55902;-37.980;-63.602;2023-05-03T02:59:50;9.20;79.40
59961;DHT22;55902;-37.980;-63.602;2023-05-03T03:02:17;9.10;78.30
59961;DHT22;55902;-37.980;-63.602;2023-05-03T03:04:44;9.10;79.10
59961;DHT22;55902;-37.980;-63.602;2023-05-03T03:07:11;9.10;84.20
59961;DHT22;55902;-37.980;-63.602;2023-05-03T03:09:37;9.00;83.40
59961;DHT22;55902;-37.980;-63.602;2023-05-03T03:12:05;9.00;84.90
59961;DHT22;55902;-37.980;-63.602;2023-05-03T03:14:31;9.00;83.20
59961;DHT22;55902;-37.980;-63.602;2023-05-03T03:27:03;8.80;85.70
59961;DHT22;55902;-37.980;-63.602;2023-05-03T03:29:31;8.70;85.40
59961;DHT22;55902;-37.980;-63.602;2023-05-03T03:31:58;8.70;83.90
59961;DHT22;55902;-37.980;-63.602;2023-05-03T03:34:25;8.80;81.90
59961;DHT22;55902;-37.980;-63.602;2023-05-03T03:36:52;8.70;82.10
59961;DHT22;55902;-37.980;-63.602;2023-05-03T03:39:19;8.70;82.30
59961;DHT22;55902;-37.980;-63.602;2023-05-03T03:41:46;8.70;82.40
59961;DHT22;55902;-37.980;-63.602;2023-05-03T03:44:13;8.70;86.10
59961;DHT22;55902;-37.980;-63.602;2023-05-03T03:46:40;8.60;86.30
59961;DHT22;55902;-37.980;-63.602;2023-05-03T03:49:07;8.60;88.30
59961;DHT22;55902;-37.980;-63.602;2023-05-03T03:51:34;8.50;88.00
59961;DHT22;55902;-37.980;-63.602;2023-05-03T03:54:01;8.50;87.40
59961;DHT22;55902;-37.980;-63.602;2023-05-03T03:56:28;8.50;86.70
59961;DHT22;55902;-37.980;-63.602;2023-05-03T03:58:55;8.40;87.90
59961;DHT22;55902;-37.980;-63.602;2023-05-03T04:01:22;8.50;87.10
59961;DHT22;55902;-37.980;-63.602;2023-05-03T04:03:49;8.50;87.60
59961;DHT22;55902;-37.980;-63.602;2023-05-03T04:06:19;8.40;87.50
59961;DHT22;55902;-37.980;-63.602;2023-05-03T04:08:46;8.40;84.10
59961;DHT22;55902;-37.980;-63.602;2023-05-03T04:11:13;8.40;82.10
59961;DHT22;55902;-37.980;-63.602;2023-05-03T04:13:40;8.50;81.20
59961;DHT22;55902;-37.980;-63.602;2023-05-03T04:16:07;8.50;80.30
59961;DHT22;55902;-37.980;-63.602;2023-05-03T04:18:34;8.50;81.30
59961;DHT22;55902;-37.980;-63.602;2023-05-03T04:21:01;8.50;82.90
59961;DHT22;55902;-37.980;-63.602;2023-05-03T04:23:28;8.40;87.40
59961;DHT22;55902;-37.980;-63.602;2023-05-03T04:25:55;8.40;87.00
59961;DHT22;55902;-37.980;-63.602;2023-05-03T04:28:23;8.30;87.40
59961;DHT22;55902;-37.980;-63.602;2023-05-03T04:30:52;8.30;85.90
59961;DHT22;55902;-37.980;-63.602;2023-05-03T04:33:20;8.30;83.80
59961;DHT22;55902;-37.980;-63.602;2023-05-03T04:35:50;8.30;86.00
59961;DHT22;55902;-37.980;-63.602;2023-05-03T04:38:17;8.30;85.30
59961;DHT22;55902;-37.980;-63.602;2023-05-03T04:40:45;8.20;85.80
59961;DHT22;55902;-37.980;-63.602;2023-05-03T04:43:12;8.20;87.20
59961;DHT22;55902;-37.980;-63.602;2023-05-03T04:45:39;8.20;87.40
59961;DHT22;55902;-37.980;-63.602;2023-05-03T04:48:08;8.20;87.70
59961;DHT22;55902;-37.980;-63.602;2023-05-03T04:50:35;8.20;86.50
59961;DHT22;55902;-37.980;-63.602;2023-05-03T04:53:01;8.20;87.60
59961;DHT22;55902;-37.980;-63.602;2023-05-03T04:55:29;8.10;89.40
59961;DHT22;55902;-37.980;-63.602;2023-05-03T05:08:02;7.80;88.90
59961;DHT22;55902;-37.980;-63.602;2023-05-03T05:10:29;7.80;88.90
59961;DHT22;55902;-37.980;-63.602;2023-05-03T05:12:56;7.70;89.60
59961;DHT22;55902;-37.980;-63.602;2023-05-03T05:15:23;7.60;90.00
59961;DHT22;55902;-37.980;-63.602;2023-05-03T05:17:50;7.60;90.00
59961;DHT22;55902;-37.980;-63.602;2023-05-03T05:20:17;7.50;90.60
59961;DHT22;55902;-37.980;-63.602;2023-05-03T05:22:44;7.40;90.60
59961;DHT22;55902;-37.980;-63.602;2023-05-03T05:25:11;7.40;90.60
59961;DHT22;55902;-37.980;-63.602;2023-05-03T05:27:38;7.40;88.60
59961;DHT22;55902;-37.980;-63.602;2023-05-03T05:30:05;7.40;87.60
59961;DHT22;55902;-37.980;-63.602;2023-05-03T05:32:33;7.40;86.20
59961;DHT22;55902;-37.980;-63.602;2023-05-03T05:35:00;7.50;86.40
59961;DHT22;55902;-37.980;-63.602;2023-05-03T05:37:27;7.40;89.70
59961;DHT22;55902;-37.980;-63.602;2023-05-03T05:39:54;7.40;90.00
59961;DHT22;55902;-37.980;-63.602;2023-05-03T05:42:21;7.40;90.20
59961;DHT22;55902;-37.980;-63.602;2023-05-03T05:44:48;7.40;88.20
59961;DHT22;55902;-37.980;-63.602;2023-05-03T05:47:17;7.40;88.50
59961;DHT22;55902;-37.980;-63.602;2023-05-03T05:49:44;7.30;90.00
59961;DHT22;55902;-37.980;-63.602;2023-05-03T05:52:11;7.30;90.20
59961;DHT22;55902;-37.980;-63.602;2023-05-03T05:54:38;7.30;90.10
59961;DHT22;55902;-37.980;-63.602;2023-05-03T05:57:05;7.30;89.40
59961;DHT22;55902;-37.980;-63.602;2023-05-03T05:59:32;7.20;89.80
59961;DHT22;55902;-37.980;-63.602;2023-05-03T06:01:59;7.20;90.10
59961;DHT22;55902;-37.980;-63.602;2023-05-03T06:04:26;7.20;90.00
59961;DHT22;55902;-37.980;-63.602;2023-05-03T06:06:57;7.20;90.20
59961;DHT22;55902;-37.980;-63.602;2023-05-03T06:09:24;7.10;90.40
59961;DHT22;55902;-37.980;-63.602;2023-05-03T06:11:51;7.10;90.80
59961;DHT22;55902;-37.980;-63.602;2023-05-03T06:14:18;7.00;91.10
59961;DHT22;55902;-37.980;-63.602;2023-05-03T06:16:46;7.00;91.40
59961;DHT22;55902;-37.980;-63.602;2023-05-03T06:19:13;6.90;91.30
59961;DHT22;55902;-37.980;-63.602;2023-05-03T06:21:40;6.90;91.40
59961;DHT22;55902;-37.980;-63.602;2023-05-03T06:24:07;6.90;91.40
59961;DHT22;55902;-37.980;-63.602;2023-05-03T06:26:34;6.90;91.40
59961;DHT22;55902;-37.980;-63.602;2023-05-03T06:29:02;6.90;91.50
59961;DHT22;55902;-37.980;-63.602;2023-05-03T06:31:29;6.80;91.80
59961;DHT22;55902;-37.980;-63.602;2023-05-03T06:33:56;6.80;91.60
59961;DHT22;55902;-37.980;-63.602;2023-05-03T06:36:23;6.70;92.00
59961;DHT22;55902;-37.980;-63.602;2023-05-03T06:38:50;6.70;91.70
59961;DHT22;55902;-37.980;-63.602;2023-05-03T06:41:17;6.70;91.80
59961;DHT22;55902;-37.980;-63.602;2023-05-03T06:43:44;6.70;92.00
59961;DHT22;55902;-37.980;-63.602;2023-05-03T06:46:11;6.70;91.50
59961;DHT22;55902;-37.980;-63.602;2023-05-03T06:48:38;6.70;91.60
59961;DHT22;55902;-37.980;-63.602;2023-05-03T06:51:05;6.70;91.20
59961;DHT22;55902;-37.980;-63.602;2023-05-03T06:53:32;6.60;91.90
59961;DHT22;55902;-37.980;-63.602;2023-05-03T06:55:59;6.60;92.00
59961;DHT22;55902;-37.980;-63.602;2023-05-03T06:58:26;6.60;92.10
59961;DHT22;55902;-37.980;-63.602;2023-05-03T07:00:53;6.50;92.20
59961;DHT22;55902;-37.980;-63.602;2023-05-03T07:03:20;6.50;92.30
59961;DHT22;55902;-37.980;-63.602;2023-05-03T07:05:47;6.50;92.60
59961;DHT22;55902;-37.980;-63.602;2023-05-03T07:08:14;6.40;92.60
59961;DHT22;55902;-37.980;-63.602;2023-05-03T07:10:41;6.40;92.70
59961;DHT22;55902;-37.980;-63.602;2023-05-03T07:13:08;6.30;92.90
59961;DHT22;55902;-37.980;-63.602;2023-05-03T07:15:36;6.30;93.00
59961;DHT22;55902;-37.980;-63.602;2023-05-03T07:18:03;6.30;93.30
59961;DHT22;55902;-37.980;-63.602;2023-05-03T07:20:30;6.30;93.00
59961;DHT22;55902;-37.980;-63.602;2023-05-03T07:22:56;6.40;92.40
59961;DHT22;55902;-37.980;-63.602;2023-05-03T07:25:24;6.40;91.80
59961;DHT22;55902;-37.980;-63.602;2023-05-03T07:27:50;6.40;92.60
59961;DHT22;55902;-37.980;-63.602;2023-05-03T07:30:18;6.40;92.80
59961;DHT22;55902;-37.980;-63.602;2023-05-03T07:32:45;6.30;92.80
59961;DHT22;55902;-37.980;-63.602;2023-05-03T07:35:12;6.30;92.80
59961;DHT22;55902;-37.980;-63.602;2023-05-03T07:37:42;6.30;92.80
59961;DHT22;55902;-37.980;-63.602;2023-05-03T07:40:10;6.30;93.00
59961;DHT22;55902;-37.980;-63.602;2023-05-03T07:42:37;6.30;92.60
59961;DHT22;55902;-37.980;-63.602;2023-05-03T07:45:04;6.20;92.10
59961;DHT22;55902;-37.980;-63.602;2023-05-03T07:47:32;6.20;91.30
59961;DHT22;55902;-37.980;-63.602;2023-05-03T07:50:03;6.30;91.30
59961;DHT22;55902;-37.980;-63.602;2023-05-03T07:52:40;6.20;92.10
59961;DHT22;55902;-37.980;-63.602;2023-05-03T07:55:08;6.20;91.30
59961;DHT22;55902;-37.980;-63.602;2023-05-03T07:57:35;6.20;91.80
59961;DHT22;55902;-37.980;-63.602;2023-05-03T08:00:03;6.10;92.30
59961;DHT22;55902;-37.980;-63.602;2023-05-03T08:02:31;6.10;91.80
59961;DHT22;55902;-37.980;-63.602;2023-05-03T08:04:58;6.10;91.90
59961;DHT22;55902;-37.980;-63.602;2023-05-03T08:07:25;6.10;91.40
59961;DHT22;55902;-37.980;-63.602;2023-05-03T08:09:53;6.10;91.60
59961;DHT22;55902;-37.980;-63.602;2023-05-03T08:12:21;6.10;91.40
59961;DHT22;55902;-37.980;-63.602;2023-05-03T08:14:48;6.00;92.10
59961;DHT22;55902;-37.980;-63.602;2023-05-03T08:17:17;6.00;92.30
59961;DHT22;55902;-37.980;-63.602;2023-05-03T08:19:44;6.00;92.40
59961;DHT22;55902;-37.980;-63.602;2023-05-03T08:22:11;6.00;92.30
59961;DHT22;55902;-37.980;-63.602;2023-05-03T08:24:39;5.90;92.00
59961;DHT22;55902;-37.980;-63.602;2023-05-03T08:27:08;5.90;91.80
59961;DHT22;55902;-37.980;-63.602;2023-05-03T08:29:35;5.90;91.60
59961;DHT22;55902;-37.980;-63.602;2023-05-03T08:32:03;5.90;91.90
59961;DHT22;55902;-37.980;-63.602;2023-05-03T08:34:31;5.80;91.80
59961;DHT22;55902;-37.980;-63.602;2023-05-03T08:36:59;5.80;91.90
59961;DHT22;55902;-37.980;-63.602;2023-05-03T08:39:26;5.80;92.80
59961;DHT22;55902;-37.980;-63.602;2023-05-03T08:41:53;5.80;92.00
59961;DHT22;55902;-37.980;-63.602;2023-05-03T08:44:21;5.80;91.60
59961;DHT22;55902;-37.980;-63.602;2023-05-03T08:46:50;5.70;92.00
59961;DHT22;55902;-37.980;-63.602;2023-05-03T08:49:17;5.70;92.10
59961;DHT22;55902;-37.980;-63.602;2023-05-03T08:51:45;5.70;92.20
59961;DHT22;55902;-37.980;-63.602;2023-05-03T08:54:15;5.70;92.60
59961;DHT22;55902;-37.980;-63.602;2023-05-03T08:56:45;5.70;92.10
59961;DHT22;55902;-37.980;-63.602;2023-05-03T08:59:13;5.60;92.00
59961;DHT22;55902;-37.980;-63.602;2023-05-03T09:01:42;5.60;92.10
59961;DHT22;55902;-37.980;-63.602;2023-05-03T09:04:10;5.60;92.50
59961;DHT22;55902;-37.980;-63.602;2023-05-03T09:06:38;5.60;92.10
59961;DHT22;55902;-37.980;-63.602;2023-05-03T09:09:06;5.60;91.80
59961;DHT22;55902;-37.980;-63.602;2023-05-03T09:11:35;5.60;92.70
59961;DHT22;55902;-37.980;-63.602;2023-05-03T09:14:13;5.60;92.20
59961;DHT22;55902;-37.980;-63.602;2023-05-03T09:16:41;5.60;91.90
59961;DHT22;55902;-37.980;-63.602;2023-05-03T09:19:10;5.60;92.70
59961;DHT22;55902;-37.980;-63.602;2023-05-03T09:21:39;5.60;92.40
59961;DHT22;55902;-37.980;-63.602;2023-05-03T09:24:13;5.60;92.80
59961;DHT22;55902;-37.980;-63.602;2023-05-03T09:26:42;5.60;92.50
59961;DHT22;55902;-37.980;-63.602;2023-05-03T09:29:09;5.50;92.40
59961;DHT22;55902;-37.980;-63.602;2023-05-03T09:31:38;5.50;92.60
59961;DHT22;55902;-37.980;-63.602;2023-05-03T09:34:23;5.50;92.50
59961;DHT22;55902;-37.980;-63.602;2023-05-03T09:36:50;5.50;92.20
59961;DHT22;55902;-37.980;-63.602;2023-05-03T09:39:18;5.40;92.30
59961;DHT22;55902;-37.980;-63.602;2023-05-03T09:41:45;5.40;92.60
59961;DHT22;55902;-37.980;-63.602;2023-05-03T09:44:12;5.40;92.80
59961;DHT22;55902;-37.980;-63.602;2023-05-03T09:46:39;5.40;92.80
59961;DHT22;55902;-37.980;-63.602;2023-05-03T09:49:26;5.40;93.10
59961;DHT22;55902;-37.980;-63.602;2023-05-03T09:51:54;5.30;93.20
59961;DHT22;55902;-37.980;-63.602;2023-05-03T09:54:22;5.30;93.20
59961;DHT22;55902;-37.980;-63.602;2023-05-03T09:56:50;5.40;93.30
59961;DHT22;55902;-37.980;-63.602;2023-05-03T09:59:17;5.40;93.20
59961;DHT22;55902;-37.980;-63.602;2023-05-03T10:01:46;5.40;93.00
59961;DHT22;55902;-37.980;-63.602;2023-05-03T10:04:17;5.40;93.20
59961;DHT22;55902;-37.980;-63.602;2023-05-03T10:06:48;5.40;93.20
59961;DHT22;55902;-37.980;-63.602;2023-05-03T10:09:31;5.40;93.20
59961;DHT22;55902;-37.980;-63.602;2023-05-03T10:12:01;5.40;92.80
59961;DHT22;55902;-37.980;-63.602;2023-05-03T10:14:31;5.30;92.30
59961;DHT22;55902;-37.980;-63.602;2023-05-03T10:17:04;5.30;92.30
59961;DHT22;55902;-37.980;-63.602;2023-05-03T10:19:34;5.30;92.70
59961;DHT22;55902;-37.980;-63.602;2023-05-03T10:22:05;5.30;93.30
59961;DHT22;55902;-37.980;-63.602;2023-05-03T10:24:37;5.30;93.10
59961;DHT22;55902;-37.980;-63.602;2023-05-03T10:30:29;5.20;93.30
59961;DHT22;55902;-37.980;-63.602;2023-05-03T10:33:27;5.20;93.60
59961;DHT22;55902;-37.980;-63.602;2023-05-03T10:35:51;5.10;93.50
59961;DHT22;55902;-37.980;-63.602;2023-05-03T10:38:24;5.10;93.40
59961;DHT22;55902;-37.980;-63.602;2023-05-03T10:40:51;5.10;93.60
59961;DHT22;55902;-37.980;-63.602;2023-05-03T10:43:42;5.10;93.70
59961;DHT22;55902;-37.980;-63.602;2023-05-03T10:46:29;5.10;93.70
59961;DHT22;55902;-37.980;-63.602;2023-05-03T10:49:17;5.00;93.40
59961;DHT22;55902;-37.980;-63.602;2023-05-03T10:51:45;5.00;93.80
59961;DHT22;55902;-37.980;-63.602;2023-05-03T10:54:12;4.90;94.20
59961;DHT22;55902;-37.980;-63.602;2023-05-03T10:56:50;4.90;94.30
59961;DHT22;55902;-37.980;-63.602;2023-05-03T10:59:17;4.90;94.40
59961;DHT22;55902;-37.980;-63.602;2023-05-03T11:01:45;4.90;94.20
59961;DHT22;55902;-37.980;-63.602;2023-05-03T11:04:24;4.90;94.10
59961;DHT22;55902;-37.980;-63.602;2023-05-03T11:06:52;4.90;94.20
59961;DHT22;55902;-37.980;-63.602;2023-05-03T11:09:33;4.80;94.30
59961;DHT22;55902;-37.980;-63.602;2023-05-03T11:12:04;4.80;94.50
59961;DHT22;55902;-37.980;-63.602;2023-05-03T11:14:31;4.80;94.30
59961;DHT22;55902;-37.980;-63.602;2023-05-03T11:16:58;4.80;94.80
59961;DHT22;55902;-37.980;-63.602;2023-05-03T11:19:27;4.80;94.60
59961;DHT22;55902;-37.980;-63.602;2023-05-03T11:21:54;4.80;94.60
59961;DHT22;55902;-37.980;-63.602;2023-05-03T11:24:23;4.90;94.70
59961;DHT22;55902;-37.980;-63.602;2023-05-03T11:26:50;4.90;94.60
59961;DHT22;55902;-37.980;-63.602;2023-05-03T11:29:17;4.90;94.80
59961;DHT22;55902;-37.980;-63.602;2023-05-03T11:31:45;4.90;94.90
59961;DHT22;55902;-37.980;-63.602;2023-05-03T11:34:12;5.00;94.90
59961;DHT22;55902;-37.980;-63.602;2023-05-03T11:36:41;5.00;94.90
59961;DHT22;55902;-37.980;-63.602;2023-05-03T11:39:09;5.00;95.20
59961;DHT22;55902;-37.980;-63.602;2023-05-03T11:41:37;5.00;95.30
59961;DHT22;55902;-37.980;-63.602;2023-05-03T11:44:07;5.00;95.40
59961;DHT22;55902;-37.980;-63.602;2023-05-03T11:46:36;5.10;95.20
59961;DHT22;55902;-37.980;-63.602;2023-05-03T11:49:07;5.20;95.30
59961;DHT22;55902;-37.980;-63.602;2023-05-03T11:51:55;5.20;95.30
59961;DHT22;55902;-37.980;-63.602;2023-05-03T11:54:27;5.20;95.60
59961;DHT22;55902;-37.980;-63.602;2023-05-03T11:56:58;5.30;95.80
59961;DHT22;55902;-37.980;-63.602;2023-05-03T11:59:45;5.50;95.90
59961;DHT22;55902;-37.980;-63.602;2023-05-03T12:02:14;5.90;95.80
59961;DHT22;55902;-37.980;-63.602;2023-05-03T12:04:42;6.30;95.60
59961;DHT22;55902;-37.980;-63.602;2023-05-03T12:07:13;6.70;95.40
59961;DHT22;55902;-37.980;-63.602;2023-05-03T12:09:40;7.20;95.00
59961;DHT22;55902;-37.980;-63.602;2023-05-03T12:12:07;7.70;94.40
59961;DHT22;55902;-37.980;-63.602;2023-05-03T12:14:56;8.10;93.60
59961;DHT22;55902;-37.980;-63.602;2023-05-03T12:17:35;8.50;92.80
59961;DHT22;55902;-37.980;-63.602;2023-05-03T12:22:42;9.30;91.70
59961;DHT22;55902;-37.980;-63.602;2023-05-03T12:25:11;9.60;91.10
59961;DHT22;55902;-37.980;-63.602;2023-05-03T12:27:39;9.90;90.50
59961;DHT22;55902;-37.980;-63.602;2023-05-03T12:30:06;10.20;90.10
59961;DHT22;55902;-37.980;-63.602;2023-05-03T12:32:39;10.50;89.60
59961;DHT22;55902;-37.980;-63.602;2023-05-03T12:35:08;10.80;88.60
59961;DHT22;55902;-37.980;-63.602;2023-05-03T12:37:35;11.00;87.40
59961;DHT22;55902;-37.980;-63.602;2023-05-03T12:40:06;11.30;87.40
59961;DHT22;55902;-37.980;-63.602;2023-05-03T12:42:33;11.60;86.10
59961;DHT22;55902;-37.980;-63.602;2023-05-03T12:45:01;11.90;85.30
59961;DHT22;55902;-37.980;-63.602;2023-05-03T12:47:28;12.20;84.30
59961;DHT22;55902;-37.980;-63.602;2023-05-03T12:49:55;12.50;82.50
59961;DHT22;55902;-37.980;-63.602;2023-05-03T12:52:23;12.60;81.60
59961;DHT22;55902;-37.980;-63.602;2023-05-03T12:54:51;12.70;81.00
59961;DHT22;55902;-37.980;-63.602;2023-05-03T12:57:18;12.90;81.00
59961;DHT22;55902;-37.980;-63.602;2023-05-03T12:59:46;13.10;80.00
59961;DHT22;55902;-37.980;-63.602;2023-05-03T13:02:21;13.20;79.30
59961;DHT22;55902;-37.980;-63.602;2023-05-03T13:04:49;13.30;79.10
59961;DHT22;55902;-37.980;-63.602;2023-05-03T13:07:34;13.50;78.90
59961;DHT22;55902;-37.980;-63.602;2023-05-03T13:10:02;13.70;78.80
59961;DHT22;55902;-37.980;-63.602;2023-05-03T13:12:29;13.90;77.30
59961;DHT22;55902;-37.980;-63.602;2023-05-03T13:14:59;14.10;77.30
59961;DHT22;55902;-37.980;-63.602;2023-05-03T13:17:46;14.30;77.90
59961;DHT22;55902;-37.980;-63.602;2023-05-03T13:20:13;14.40;76.00
59961;DHT22;55902;-37.980;-63.602;2023-05-03T13:22:41;14.70;77.10
59961;DHT22;55902;-37.980;-63.602;2023-05-03T13:25:08;14.90;76.70
59961;DHT22;55902;-37.980;-63.602;2023-05-03T13:27:35;15.00;75.70
59961;DHT22;55902;-37.980;-63.602;2023-05-03T13:30:02;15.30;75.80
59961;DHT22;55902;-37.980;-63.602;2023-05-03T13:32:30;15.20;74.80
59961;DHT22;55902;-37.980;-63.602;2023-05-03T13:34:58;15.30;74.80
59961;DHT22;55902;-37.980;-63.602;2023-05-03T13:37:26;15.40;75.10
59961;DHT22;55902;-37.980;-63.602;2023-05-03T13:39:53;15.50;74.10
59961;DHT22;55902;-37.980;-63.602;2023-05-03T13:42:21;15.70;73.80
59961;DHT22;55902;-37.980;-63.602;2023-05-03T13:44:48;15.80;73.10
59961;DHT22;55902;-37.980;-63.602;2023-05-03T13:47:15;15.80;72.30
59961;DHT22;55902;-37.980;-63.602;2023-05-03T13:49:42;15.80;72.50
59961;DHT22;55902;-37.980;-63.602;2023-05-03T13:52:10;15.90;72.60
59961;DHT22;55902;-37.980;-63.602;2023-05-03T13:54:37;16.00;73.60
59961;DHT22;55902;-37.980;-63.602;2023-05-03T13:57:05;16.10;72.70
59961;DHT22;55902;-37.980;-63.602;2023-05-03T13:59:32;16.40;72.50
59961;DHT22;55902;-37.980;-63.602;2023-05-03T14:01:59;16.40;71.60
59961;DHT22;55902;-37.980;-63.602;2023-05-03T14:04:27;16.70;73.20
59961;DHT22;55902;-37.980;-63.602;2023-05-03T14:06:54;17.00;72.40
59961;DHT22;55902;-37.980;-63.602;2023-05-03T14:09:21;17.10;69.00
59961;DHT22;55902;-37.980;-63.602;2023-05-03T14:11:48;17.20;69.30
59961;DHT22;55902;-37.980;-63.602;2023-05-03T14:14:16;17.40;70.30
59961;DHT22;55902;-37.980;-63.602;2023-05-03T14:16:43;17.70;67.40
59961;DHT22;55902;-37.980;-63.602;2023-05-03T14:19:12;18.00;66.50
59961;DHT22;55902;-37.980;-63.602;2023-05-03T14:21:42;18.10;63.60
59961;DHT22;55902;-37.980;-63.602;2023-05-03T14:24:10;18.10;62.90
59961;DHT22;55902;-37.980;-63.602;2023-05-03T14:26:37;18.40;63.50
59961;DHT22;55902;-37.980;-63.602;2023-05-03T14:29:04;18.50;61.80
59961;DHT22;55902;-37.980;-63.602;2023-05-03T14:31:33;18.70;61.80
59961;DHT22;55902;-37.980;-63.602;2023-05-03T14:34:00;18.90;61.40
59961;DHT22;55902;-37.980;-63.602;2023-05-03T14:36:27;19.10;60.60
59961;DHT22;55902;-37.980;-63.602;2023-05-03T14:39:00;19.20;60.40
59961;DHT22;55902;-37.980;-63.602;2023-05-03T14:41:28;19.30;59.40
59961;DHT22;55902;-37.980;-63.602;2023-05-03T14:43:57;19.40;59.80
59961;DHT22;55902;-37.980;-63.602;2023-05-03T14:46:24;19.40;58.60
59961;DHT22;55902;-37.980;-63.602;2023-05-03T14:48:51;19.50;59.50
59961;DHT22;55902;-37.980;-63.602;2023-05-03T14:51:18;19.70;58.70
59961;DHT22;55902;-37.980;-63.602;2023-05-03T14:53:45;19.90;59.70
59961;DHT22;55902;-37.980;-63.602;2023-05-03T14:56:15;20.10;58.90
59961;DHT22;55902;-37.980;-63.602;2023-05-03T14:58:42;20.20;58.60
59961;DHT22;55902;-37.980;-63.602;2023-05-03T15:01:22;20.40;57.80
59961;DHT22;55902;-37.980;-63.602;2023-05-03T15:03:49;20.60;58.50
59961;DHT22;55902;-37.980;-63.602;2023-05-03T15:06:27;20.70;56.90
59961;DHT22;55902;-37.980;-63.602;2023-05-03T15:08:56;20.90;56.40
59961;DHT22;55902;-37.980;-63.602;2023-05-03T15:11:23;21.00;56.40
59961;DHT22;55902;-37.980;-63.602;2023-05-03T15:13:51;21.20;56.40
59961;DHT22;55902;-37.980;-63.602;2023-05-03T15:16:18;21.30;55.70
59961;DHT22;55902;-37.980;-63.602;2023-05-03T15:18:46;21.30;55.20
59961;DHT22;55902;-37.980;-63.602;2023-05-03T15:21:16;21.20;56.00
59961;DHT22;55902;-37.980;-63.602;2023-05-03T15:23:44;21.30;55.80
59961;DHT22;55902;-37.980;-63.602;2023-05-03T15:26:13;21.50;55.90
59961;DHT22;55902;-37.980;-63.602;2023-05-03T15:28:40;21.70;53.70
59961;DHT22;55902;-37.980;-63.602;2023-05-03T15:31:07;21.80;54.50
59961;DHT22;55902;-37.980;-63.602;2023-05-03T15:33:42;22.00;54.80
59961;DHT22;55902;-37.980;-63.602;2023-05-03T15:36:11;22.00;52.90
59961;DHT22;55902;-37.980;-63.602;2023-05-03T15:38:39;22.00;52.90
59961;DHT22;55902;-37.980;-63.602;2023-05-03T15:41:06;22.20;52.40
59961;DHT22;55902;-37.980;-63.602;2023-05-03T15:43:36;22.60;53.00
59961;DHT22;55902;-37.980;-63.602;2023-05-03T15:46:03;22.80;52.60
59961;DHT22;55902;-37.980;-63.602;2023-05-03T15:48:30;23.10;52.20
59961;DHT22;55902;-37.980;-63.602;2023-05-03T15:50:58;23.30;51.00